createdAt,value
2022-11-16T00:02:22.174Z,45.83
2022-11-16T00:04:49.043Z,41.70
2022-11-16T00:07:15.911Z,32.83
2022-11-16T00:09:42.660Z,36.25
2022-11-16T00:12:11.168Z,36.35
2022-11-16T00:14:38.116Z,41.50
2022-11-16T00:17:04.988Z,40.28
2022-11-16T00:19:32.126Z,44.15
2022-11-16T00:21:58.991Z,41.47
2022-11-16T00:24:25.718Z,40.20
2022-11-16T00:26:54.780Z,38.85
2022-11-16T00:29:24.169Z,39.38
2022-11-16T00:31:51.646Z,46.63
2022-11-16T00:34:18.773Z,46.40
2022-11-16T00:36:46.637Z,43.13
2022-11-16T00:39:15.315Z,39.95
2022-11-16T00:41:43.131Z,34.90
2022-11-16T00:44:10.978Z,36.08
2022-11-16T00:46:38.003Z,39.65
2022-11-16T00:49:05.762Z,39.92
2022-11-16T00:51:33.858Z,37.80
2022-11-16T00:54:01.015Z,39.92
2022-11-16T00:56:27.753Z,35.47
2022-11-16T00:58:54.498Z,43.95
2022-11-16T01:01:21.342Z,44.13
2022-11-16T01:03:48.116Z,50.63
2022-11-16T01:06:16.174Z,40.50
2022-11-16T01:08:43.965Z,35.72
2022-11-16T01:11:32.692Z,28.15
2022-11-16T01:14:03.245Z,38.28
2022-11-16T01:16:38.874Z,35.33
2022-11-16T01:19:06.289Z,40.58
2022-11-16T01:21:34.039Z,33.95
2022-11-16T01:24:00.945Z,43.70
2022-11-16T01:26:27.807Z,45.63
2022-11-16T01:28:54.575Z,41.85
2022-11-16T01:31:21.417Z,35.75
2022-11-16T01:33:48.182Z,46.13
2022-11-16T01:36:15.615Z,46.08
2022-11-16T01:38:44.093Z,46.72
2022-11-16T01:41:16.088Z,43.10
2022-11-16T01:43:58.441Z,43.25
2022-11-16T01:46:26.202Z,44.72
2022-11-16T01:49:13.444Z,44.72
2022-11-16T01:51:44.230Z,47.53
2022-11-16T01:54:13.853Z,48.40
2022-11-16T01:56:42.465Z,45.90
2022-11-16T01:59:09.889Z,44.97
2022-11-16T02:01:36.617Z,70.43
2022-11-16T02:04:03.435Z,53.00
2022-11-16T02:06:43.401Z,49.50
2022-11-16T02:09:47.611Z,45.20
2022-11-16T02:12:42.079Z,42.45
2022-11-16T02:15:36.457Z,51.35
2022-11-16T02:18:27.556Z,52.25
2022-11-16T02:21:15.112Z,51.38
2022-11-16T02:23:47.817Z,39.88
2022-11-16T02:26:39.200Z,50.17
2022-11-16T02:29:44.958Z,48.00
2022-11-16T02:32:14.724Z,48.92
2022-11-16T02:34:53.519Z,59.03
2022-11-16T02:37:24.547Z,42.33
2022-11-16T02:39:56.917Z,52.15
2022-11-16T02:42:34.632Z,57.15
2022-11-16T02:45:03.454Z,43.95
2022-11-16T02:47:34.049Z,54.47
2022-11-16T02:50:09.090Z,45.87
2022-11-16T02:52:36.941Z,48.95
2022-11-16T02:55:03.998Z,57.58
2022-11-16T02:57:39.420Z,43.22
2022-11-16T03:00:10.816Z,49.60
2022-11-16T03:02:48.753Z,52.47
2022-11-16T03:05:21.581Z,66.47
2022-11-16T03:08:00.998Z,52.60
2022-11-16T03:10:46.722Z,74.38
2022-11-16T03:13:15.298Z,50.47
2022-11-16T03:15:43.004Z,60.55
2022-11-16T03:18:14.646Z,52.28
2022-11-16T03:20:43.939Z,59.60
2022-11-16T03:23:12.666Z,61.50
2022-11-16T03:25:52.666Z,62.72
2022-11-16T03:28:29.346Z,64.47
2022-11-16T03:31:02.546Z,68.60
2022-11-16T03:33:34.523Z,59.08
2022-11-16T03:36:15.489Z,64.25
2022-11-16T03:38:44.203Z,64.97
2022-11-16T03:41:12.290Z,67.40
2022-11-16T03:43:40.455Z,91.00
2022-11-16T03:46:07.258Z,66.88
2022-11-16T03:48:39.559Z,77.43
2022-11-16T03:51:09.161Z,104.82
2022-11-16T03:53:36.366Z,64.82
2022-11-16T03:56:03.301Z,68.60
2022-11-16T03:58:30.541Z,76.70
2022-11-16T04:00:57.556Z,75.13
2022-11-16T04:03:24.444Z,70.50
2022-11-16T04:06:09.714Z,84.55
2022-11-16T04:08:55.068Z,74.05
2022-11-16T04:11:41.512Z,80.25
2022-11-16T04:14:33.447Z,86.82
2022-11-16T04:17:18.699Z,67.55
2022-11-16T04:20:04.287Z,98.10
2022-11-16T04:23:02.228Z,77.55
2022-11-16T04:25:32.601Z,64.10
2022-11-16T04:28:14.615Z,81.43
2022-11-16T04:31:02.237Z,70.30
2022-11-16T04:33:49.007Z,67.10
2022-11-16T04:36:34.418Z,76.40
2022-11-16T04:39:01.324Z,57.33
2022-11-16T04:41:48.046Z,58.60
2022-11-16T04:44:14.917Z,49.25
2022-11-16T04:47:00.133Z,61.90
2022-11-16T04:49:27.027Z,51.92
2022-11-16T04:51:54.453Z,46.72
2022-11-16T04:54:21.448Z,52.53
2022-11-16T04:56:48.311Z,57.58
2022-11-16T04:59:15.300Z,51.60
2022-11-16T05:02:00.660Z,60.78
2022-11-16T05:04:27.363Z,52.58
2022-11-16T05:06:54.266Z,50.83
2022-11-16T05:09:21.318Z,55.65
2022-11-16T05:11:48.036Z,45.95
2022-11-16T05:14:14.764Z,48.20
2022-11-16T05:16:41.519Z,58.28
2022-11-16T05:19:26.740Z,55.72
2022-11-16T05:21:53.580Z,48.90
2022-11-16T05:24:35.456Z,42.00
2022-11-16T05:27:08.514Z,52.70
2022-11-16T05:29:35.678Z,48.33
2022-11-16T05:32:03.182Z,46.35
2022-11-16T05:34:30.062Z,54.05
2022-11-16T05:36:57.811Z,50.15
2022-11-16T05:39:25.576Z,60.28
2022-11-16T05:41:53.082Z,56.13
2022-11-16T05:44:19.900Z,57.42
2022-11-16T05:46:47.171Z,49.28
2022-11-16T05:49:14.809Z,64.28
2022-11-16T05:51:44.432Z,55.90
2022-11-16T05:54:17.709Z,59.03
2022-11-16T05:56:45.052Z,64.85
2022-11-16T05:59:17.444Z,69.53
2022-11-16T06:01:45.020Z,64.72
2022-11-16T06:04:12.404Z,61.65
2022-11-16T06:06:39.629Z,60.58
2022-11-16T06:09:07.211Z,66.57
2022-11-16T06:11:36.031Z,67.80
2022-11-16T06:14:03.523Z,58.00
2022-11-16T06:16:30.445Z,60.33
2022-11-16T06:19:00.121Z,66.30
2022-11-16T06:21:27.109Z,70.75
2022-11-16T06:23:54.318Z,71.43
2022-11-16T06:26:21.111Z,60.92
2022-11-16T06:28:50.676Z,68.40
2022-11-16T06:31:17.649Z,75.07
2022-11-16T06:33:44.622Z,82.65
2022-11-16T06:36:11.408Z,78.85
2022-11-16T06:38:38.506Z,77.75
2022-11-16T06:41:05.538Z,80.63
2022-11-16T06:43:32.277Z,78.13
2022-11-16T06:46:02.313Z,69.63
2022-11-16T06:48:30.764Z,76.57
2022-11-16T06:50:57.669Z,84.43
2022-11-16T06:53:28.902Z,82.88
2022-11-16T06:56:00.232Z,87.03
2022-11-16T06:58:29.664Z,79.15
2022-11-16T07:00:56.404Z,80.05
2022-11-16T07:03:23.228Z,96.50
2022-11-16T07:05:50.061Z,70.22
2022-11-16T07:08:16.934Z,68.38
2022-11-16T07:10:43.714Z,88.05
2022-11-16T07:13:10.577Z,90.65
2022-11-16T07:15:37.365Z,86.85
2022-11-16T07:18:06.018Z,69.35
2022-11-16T07:20:33.477Z,64.25
2022-11-16T07:23:01.562Z,71.68
2022-11-16T07:25:28.490Z,81.53
2022-11-16T07:27:55.339Z,73.35
2022-11-16T07:30:25.292Z,67.35
2022-11-16T07:32:56.347Z,68.55
2022-11-16T07:35:23.399Z,76.35
2022-11-16T07:37:53.029Z,58.40
2022-11-16T07:40:20.784Z,59.88
2022-11-16T07:42:48.010Z,70.20
2022-11-16T07:45:14.851Z,56.65
2022-11-16T07:47:44.619Z,56.25
2022-11-16T07:50:11.447Z,36.85
2022-11-16T07:52:38.327Z,49.53
2022-11-16T07:55:05.867Z,39.00
2022-11-16T07:57:32.652Z,29.15
2022-11-16T07:59:59.477Z,27.92
2022-11-16T08:02:26.239Z,34.85
2022-11-16T08:04:52.966Z,28.83
2022-11-16T08:07:19.773Z,32.00
2022-11-16T08:09:46.540Z,21.70
2022-11-16T08:12:13.418Z,32.60
2022-11-16T08:14:40.192Z,31.45
2022-11-16T08:17:08.416Z,25.33
2022-11-16T08:19:36.578Z,26.70
2022-11-16T08:22:13.137Z,25.35
2022-11-16T08:24:40.007Z,24.52
2022-11-16T08:27:06.829Z,21.63
2022-11-16T08:29:42.247Z,23.30
2022-11-16T08:32:09.020Z,23.95
2022-11-16T08:34:35.757Z,24.20
2022-11-16T08:37:02.494Z,20.25
2022-11-16T08:39:29.463Z,15.95
2022-11-16T08:41:56.276Z,15.18
2022-11-16T08:44:23.027Z,12.32
2022-11-16T08:46:49.802Z,23.80
2022-11-16T08:49:16.547Z,19.63
2022-11-16T08:51:43.273Z,27.17
2022-11-16T08:54:10.432Z,16.23
2022-11-16T08:56:37.342Z,22.17
2022-11-16T08:59:04.282Z,16.02
2022-11-16T09:01:32.866Z,21.65
2022-11-16T09:04:00.571Z,24.88
2022-11-16T09:06:28.013Z,19.90
2022-11-16T09:08:55.157Z,14.55
2022-11-16T09:11:23.970Z,22.73
2022-11-16T09:13:53.034Z,22.77
2022-11-16T09:16:21.430Z,21.40
2022-11-16T09:18:50.494Z,20.55
2022-11-16T09:21:22.414Z,23.10
2022-11-16T09:23:50.343Z,18.90
2022-11-16T09:26:21.244Z,25.23
2022-11-16T09:28:53.214Z,20.58
2022-11-16T09:31:23.339Z,19.00
2022-11-16T09:33:51.020Z,14.70
2022-11-16T09:36:17.841Z,23.80
2022-11-16T09:41:38.315Z,17.38
2022-11-16T09:44:20.103Z,15.82
2022-11-16T09:46:52.992Z,18.83
2022-11-16T09:49:26.174Z,17.88
2022-11-16T09:52:00.254Z,19.27
2022-11-16T09:54:31.731Z,18.65
2022-11-16T09:59:36.546Z,14.55
2022-11-16T10:02:24.617Z,19.00
2022-11-16T10:05:03.163Z,22.73
2022-11-16T10:07:44.715Z,19.60
2022-11-16T10:13:06.122Z,8.88
2022-11-16T10:15:43.558Z,12.32
2022-11-16T10:18:32.765Z,14.40
2022-11-16T10:21:25.818Z,13.13
2022-11-16T10:24:16.653Z,11.65
2022-11-16T10:27:05.358Z,10.75
2022-11-16T10:30:09.170Z,14.48
2022-11-16T10:32:52.038Z,8.40
2022-11-16T10:35:23.084Z,8.38
2022-11-16T10:37:51.764Z,13.77
2022-11-16T10:40:37.118Z,14.75
2022-11-16T10:43:13.442Z,14.25
2022-11-16T10:45:50.709Z,11.52
2022-11-16T10:48:31.484Z,14.50
2022-11-16T10:50:58.310Z,8.80
2022-11-16T10:53:35.958Z,14.60
2022-11-16T10:56:25.626Z,7.38
2022-11-16T10:59:00.533Z,11.80
2022-11-16T11:01:32.013Z,9.93
2022-11-16T11:04:13.618Z,12.57
2022-11-16T11:09:24.695Z,9.88
2022-11-16T11:12:40.674Z,11.52
2022-11-16T11:15:07.681Z,9.38
2022-11-16T11:17:36.257Z,8.60
2022-11-16T11:20:15.241Z,10.82
2022-11-16T11:22:47.508Z,10.10
2022-11-16T11:25:32.377Z,10.38
2022-11-16T11:28:27.758Z,10.35
2022-11-16T11:31:00.474Z,9.93
2022-11-16T11:33:33.268Z,9.88
2022-11-16T11:36:07.630Z,6.50
2022-11-16T11:38:54.411Z,6.90
2022-11-16T11:41:21.525Z,6.75
2022-11-16T11:44:19.320Z,10.30
2022-11-16T11:49:50.115Z,9.20
2022-11-16T11:52:26.727Z,10.13
2022-11-16T11:54:55.989Z,9.95
2022-11-16T11:57:24.919Z,12.10
2022-11-16T11:59:54.541Z,12.45
2022-11-16T12:02:30.260Z,8.68
2022-11-16T12:05:23.238Z,10.27
2022-11-16T12:07:50.408Z,7.65
2022-11-16T12:10:43.281Z,10.70
2022-11-16T12:13:27.928Z,14.23
2022-11-16T12:16:12.705Z,7.68
2022-11-16T12:19:17.398Z,12.93
2022-11-16T12:22:19.414Z,10.23
2022-11-16T12:25:27.689Z,13.50
2022-11-16T12:28:13.940Z,9.70
2022-11-16T12:31:06.053Z,9.68
2022-11-16T12:33:54.960Z,10.35
2022-11-16T12:36:32.866Z,15.85
2022-11-16T12:39:26.947Z,9.00
2022-11-16T12:42:01.805Z,9.48
2022-11-16T12:45:16.416Z,12.18
2022-11-16T12:48:17.309Z,6.30
2022-11-16T12:51:15.121Z,12.07
2022-11-16T12:54:01.992Z,11.35
2022-11-16T12:57:14.626Z,5.82
2022-11-16T13:00:00.516Z,11.55
2022-11-16T13:02:45.776Z,4.75
2022-11-16T13:05:21.148Z,10.23
2022-11-16T13:07:57.044Z,7.30
2022-11-16T13:10:29.595Z,11.70
2022-11-16T13:15:54.644Z,6.47
2022-11-16T13:18:23.141Z,55.60
2022-11-16T13:20:59.841Z,6.40
2022-11-16T13:23:52.049Z,6.75
2022-11-16T13:26:35.872Z,21.08
2022-11-16T13:29:22.045Z,9.23
2022-11-16T13:32:27.456Z,12.15
2022-11-16T13:34:55.049Z,7.20
2022-11-16T13:37:39.761Z,7.10
2022-11-16T13:40:06.683Z,10.82
2022-11-16T13:42:42.622Z,9.45
2022-11-16T13:45:22.951Z,12.43
2022-11-16T13:47:55.611Z,9.18
2022-11-16T13:50:33.038Z,5.82
2022-11-16T13:56:27.374Z,9.13
2022-11-16T13:58:58.344Z,5.80
2022-11-16T14:01:26.670Z,8.63
2022-11-16T14:04:46.056Z,7.43
2022-11-16T14:07:36.770Z,8.82
2022-11-16T14:10:05.867Z,9.13
2022-11-16T14:12:39.001Z,12.48
2022-11-16T14:15:19.649Z,11.02
2022-11-16T14:18:04.479Z,9.73
2022-11-16T14:20:40.286Z,11.95
2022-11-16T14:23:42.664Z,9.27
2022-11-16T14:26:24.362Z,11.57
2022-11-16T14:29:16.824Z,12.55
2022-11-16T14:31:54.129Z,12.63
2022-11-16T14:34:25.604Z,7.22
2022-11-16T14:39:44.000Z,10.77
2022-11-16T14:42:21.773Z,10.23
2022-11-16T14:44:50.325Z,9.77
2022-11-16T14:47:28.800Z,8.23
2022-11-16T14:49:56.578Z,7.10
2022-11-16T14:52:34.618Z,7.70
2022-11-16T14:55:06.575Z,31.40
2022-11-16T14:57:37.914Z,12.70
2022-11-16T15:00:25.825Z,10.68
2022-11-16T15:03:02.131Z,12.52
2022-11-16T15:05:36.126Z,10.07
2022-11-16T15:08:12.216Z,10.23
2022-11-16T15:10:52.134Z,9.23
2022-11-16T15:13:23.048Z,9.65
2022-11-16T15:16:17.238Z,12.60
2022-11-16T15:19:04.077Z,8.15
2022-11-16T15:21:31.063Z,7.70
2022-11-16T15:26:44.842Z,10.77
2022-11-16T15:29:17.544Z,10.95
2022-11-16T15:31:50.957Z,9.55
2022-11-16T15:34:19.625Z,12.65
2022-11-16T15:36:52.236Z,9.25
2022-11-16T15:39:23.877Z,7.53
2022-11-16T15:41:52.714Z,7.05
2022-11-16T15:44:22.166Z,14.85
2022-11-16T15:46:53.209Z,17.38
2022-11-16T15:49:30.499Z,14.43
2022-11-16T15:51:58.580Z,11.88
2022-11-16T15:54:30.306Z,15.30
2022-11-16T15:57:07.918Z,9.02
2022-11-16T15:59:36.800Z,13.40
2022-11-16T16:02:07.065Z,9.18
2022-11-16T16:04:36.453Z,10.48
2022-11-16T16:07:03.491Z,8.93
2022-11-16T16:09:39.209Z,13.25
2022-11-16T16:12:47.720Z,11.02
2022-11-16T16:15:33.756Z,14.00
2022-11-16T16:18:11.017Z,13.65
2022-11-16T16:20:45.485Z,10.05
2022-11-16T16:23:16.429Z,16.45
2022-11-16T16:25:49.039Z,14.15
2022-11-16T16:28:17.260Z,12.75
2022-11-16T16:30:44.067Z,18.25
2022-11-16T16:33:19.664Z,19.30
2022-11-16T16:35:49.772Z,17.23
2022-11-16T16:38:16.681Z,15.95
2022-11-16T16:40:43.549Z,11.25
2022-11-16T16:43:13.109Z,11.43
2022-11-16T16:45:44.283Z,11.52
2022-11-16T16:48:14.246Z,19.15
2022-11-16T16:50:41.147Z,9.63
2022-11-16T16:53:16.747Z,15.50
2022-11-16T16:55:44.345Z,9.63
2022-11-16T16:58:22.018Z,9.98
2022-11-16T17:01:00.898Z,14.45
2022-11-16T17:03:28.127Z,29.45
2022-11-16T17:06:00.966Z,14.38
2022-11-16T17:08:39.896Z,14.02
2022-11-16T17:11:06.698Z,14.27
2022-11-16T17:13:42.250Z,15.30
2022-11-16T17:16:10.481Z,14.85
2022-11-16T17:18:56.451Z,13.48
2022-11-16T17:21:23.232Z,16.40
2022-11-16T17:23:50.307Z,14.40
2022-11-16T17:26:20.408Z,20.30
2022-11-16T17:28:47.244Z,18.90
2022-11-16T17:31:17.902Z,15.88
2022-11-16T17:33:51.662Z,14.48
2022-11-16T17:36:21.710Z,21.95
2022-11-16T17:38:48.499Z,18.85
2022-11-16T17:41:36.825Z,17.90
2022-11-16T17:44:06.824Z,19.05
2022-11-16T17:46:34.040Z,13.02
2022-11-16T17:49:00.901Z,22.00
2022-11-16T17:51:33.523Z,17.63
2022-11-16T17:54:00.924Z,15.50
2022-11-16T17:56:28.965Z,18.17
2022-11-16T17:59:03.000Z,24.38
2022-11-16T18:01:41.436Z,16.48
2022-11-16T18:04:08.332Z,20.98
2022-11-16T18:06:35.629Z,21.15
2022-11-16T18:09:05.054Z,15.88
2022-11-16T18:11:31.849Z,23.00
2022-11-16T18:14:05.526Z,27.98
2022-11-16T18:16:33.230Z,22.42
2022-11-16T18:19:06.954Z,24.27
2022-11-16T18:21:43.283Z,25.00
2022-11-16T18:24:13.868Z,21.25
2022-11-16T18:26:43.894Z,14.73
2022-11-16T18:29:15.397Z,21.05
2022-11-16T18:34:11.884Z,23.58
2022-11-16T18:36:38.692Z,18.70
2022-11-16T18:39:08.018Z,19.27
2022-11-16T18:41:34.765Z,12.38
2022-11-16T18:44:02.572Z,10.25
2022-11-16T18:46:46.374Z,19.35
2022-11-16T18:49:30.696Z,14.05
2022-11-16T18:52:06.098Z,9.38
2022-11-16T18:54:35.988Z,17.08
2022-11-16T18:57:02.973Z,14.73
2022-11-16T18:59:38.801Z,15.90
2022-11-16T19:02:10.853Z,16.38
2022-11-16T19:04:39.985Z,9.10
2022-11-16T19:09:56.578Z,24.90
2022-11-16T19:12:23.375Z,14.40
2022-11-16T19:14:50.183Z,8.48
2022-11-16T19:17:18.688Z,21.02
2022-11-16T19:19:45.630Z,10.05
2022-11-16T19:22:12.520Z,13.13
2022-11-16T19:24:42.141Z,21.05
2022-11-16T19:27:08.891Z,14.35
2022-11-16T19:29:35.939Z,8.63
2022-11-16T19:32:10.591Z,8.75
2022-11-16T19:34:39.858Z,16.15
2022-11-16T19:37:06.898Z,12.30
2022-11-16T19:39:36.883Z,9.43
2022-11-16T19:42:03.786Z,19.00
2022-11-16T19:44:39.384Z,6.80
2022-11-16T19:47:08.678Z,10.20
2022-11-16T19:49:35.777Z,23.48
2022-11-16T19:52:02.638Z,12.38
2022-11-16T19:54:32.356Z,8.65
2022-11-16T19:57:02.432Z,13.02
2022-11-16T19:59:35.213Z,9.30
2022-11-16T20:02:02.384Z,7.47
2022-11-16T20:04:34.000Z,10.30
2022-11-16T20:07:01.594Z,11.35
2022-11-16T20:09:28.396Z,12.55
2022-11-16T20:11:59.417Z,12.35
2022-11-16T20:14:26.382Z,9.27
2022-11-16T20:16:53.225Z,8.32
2022-11-16T20:19:25.278Z,9.48
2022-11-16T20:21:53.242Z,4.35
2022-11-16T20:24:20.146Z,11.30
2022-11-16T20:26:53.623Z,12.63
2022-11-16T20:29:26.374Z,7.63
2022-11-16T20:31:56.140Z,11.07
2022-11-16T20:34:23.045Z,12.20
2022-11-16T20:37:01.703Z,7.40
2022-11-16T20:39:31.178Z,10.50
2022-11-16T20:42:03.412Z,8.55
2022-11-16T20:44:33.023Z,7.35
2022-11-16T20:46:59.830Z,12.25
2022-11-16T20:49:26.889Z,9.38
2022-11-16T20:51:53.675Z,9.30
2022-11-16T20:54:20.445Z,9.27
2022-11-16T20:56:49.669Z,10.23
2022-11-16T20:59:16.832Z,8.35
2022-11-16T21:01:47.778Z,6.43
2022-11-16T21:04:18.404Z,16.02
2022-11-16T21:07:08.299Z,8.60
2022-11-16T21:09:55.038Z,3.70
2022-11-16T21:12:42.884Z,12.65
2022-11-16T21:15:10.671Z,10.32
2022-11-16T21:17:37.574Z,9.57
2022-11-16T21:20:28.991Z,10.73
2022-11-16T21:22:51.440Z,8.82
2022-11-16T21:25:18.321Z,6.93
2022-11-16T21:27:46.274Z,9.05
2022-11-16T21:30:13.845Z,12.95
2022-11-16T21:32:40.756Z,5.82
2022-11-16T21:35:07.840Z,10.35
2022-11-16T21:37:34.538Z,5.03
2022-11-16T21:40:01.485Z,8.27
2022-11-16T21:42:28.440Z,7.80
2022-11-16T21:44:55.225Z,11.93
2022-11-16T21:47:22.227Z,8.60
2022-11-16T21:50:16.942Z,11.88
2022-11-16T21:52:38.610Z,12.02
2022-11-16T21:55:05.702Z,9.93
2022-11-16T21:57:32.858Z,6.90
2022-11-16T22:00:01.366Z,10.00
2022-11-16T22:02:28.308Z,9.32
2022-11-16T22:05:17.019Z,12.63
2022-11-16T22:07:43.823Z,14.13
2022-11-16T22:10:12.032Z,12.20
2022-11-16T22:12:39.420Z,8.27
2022-11-16T22:15:07.382Z,9.73
2022-11-16T22:17:34.155Z,8.38
2022-11-16T22:20:20.964Z,8.15
2022-11-16T22:22:47.947Z,11.18
2022-11-16T22:25:14.702Z,10.43
2022-11-16T22:27:58.672Z,14.90
2022-11-16T22:30:28.307Z,8.80
2022-11-16T22:32:58.391Z,10.43
2022-11-16T22:35:28.555Z,7.72
2022-11-16T22:37:59.349Z,9.25
2022-11-16T22:40:26.169Z,17.02
2022-11-16T22:42:57.582Z,13.15
2022-11-16T22:45:25.335Z,10.43
2022-11-16T22:47:54.926Z,11.30
2022-11-16T22:50:24.223Z,7.50
2022-11-16T22:52:51.132Z,12.32
2022-11-16T22:58:02.128Z,11.75
2022-11-16T23:00:28.908Z,11.90
2022-11-16T23:02:55.738Z,13.70
2022-11-16T23:05:22.589Z,19.08
2022-11-16T23:07:49.435Z,13.13
2022-11-16T23:10:16.276Z,11.70
2022-11-16T23:13:01.866Z,13.75
2022-11-16T23:15:47.731Z,7.40
2022-11-16T23:18:14.802Z,12.52
2022-11-16T23:21:00.201Z,13.57
2022-11-16T23:23:45.389Z,10.82
2022-11-16T23:26:51.267Z,9.43
2022-11-16T23:29:18.243Z,13.48
2022-11-16T23:31:45.524Z,17.95
2022-11-16T23:34:12.339Z,17.60
2022-11-16T23:36:39.223Z,10.35
2022-11-16T23:39:06.040Z,14.32
2022-11-16T23:41:51.605Z,14.82
2022-11-16T23:44:18.330Z,15.07
2022-11-16T23:46:45.750Z,14.88
2022-11-16T23:49:12.670Z,15.73
2022-11-16T23:51:39.454Z,11.70
2022-11-16T23:54:07.382Z,12.80
2022-11-16T23:56:34.146Z,13.15
2022-11-16T23:59:00.892Z,19.88
